Time;durP1;ratioP1;P1;durP2;ratioP2;P2;SDS_P1;SDS_P2;PMS_P1;PMS_P2;Temp;Humidity;BMP_temperature;BMP_pressure;BME280_temperature;BME280_humidity;BME280_pressure;Samples;Min_cycle;Max_cycle;Signal;HPM_P1;HPM_P2
2021/12/28 00:00:31;;;;;;;9.35;1.75;;;;;;;8.59;100.00;97951.13;5066308;28;20025;-51
2021/12/28 00:02:58;;;;;;;12.18;1.77;;;;;;;8.59;100.00;97956.41;5065502;28;20029;-50
2021/12/28 00:05:25;;;;;;;13.25;3.45;;;;;;;8.58;100.00;97954.81;5065166;28;20059;-49
2021/12/28 00:07:51;;;;;;;5.65;1.90;;;;;;;8.57;100.00;97956.66;5063503;28;20493;-49
2021/12/28 00:10:18;;;;;;;5.88;1.70;;;;;;;8.57;100.00;97958.47;5064553;28;20205;-47
2021/12/28 00:12:44;;;;;;;7.60;1.33;;;;;;;8.55;100.00;97957.94;5066903;28;20051;-47
2021/12/28 00:17:59;;;;;;;13.90;1.77;;;;;;;8.54;100.00;97961.59;5062181;28;20037;-49
2021/12/28 00:20:47;;;;;;;8.90;1.67;;;;;;;8.54;100.00;97974.81;5063536;28;20044;-49
2021/12/28 00:23:17;;;;;;;7.93;1.63;;;;;;;8.54;100.00;97982.72;5062873;28;20065;-52
2021/12/28 00:25:44;;;;;;;6.63;0.90;;;;;;;8.54;100.00;97972.16;5060715;28;20391;-49
2021/12/28 00:28:09;;;;;;;12.38;3.28;;;;;;;8.54;100.00;97974.81;5057834;28;20462;-49
2021/12/28 00:30:35;;;;;;;8.82;1.52;;;;;;;8.51;100.00;97968.97;5057757;28;20504;-50
2021/12/28 00:33:01;;;;;;;6.97;1.85;;;;;;;8.52;100.00;97970.59;5053620;28;20219;-48
2021/12/28 00:35:31;;;;;;;2.72;0.88;;;;;;;8.52;100.00;97981.16;5055093;28;20032;-49
2021/12/28 00:37:57;;;;;;;5.13;1.00;;;;;;;8.51;100.00;97989.28;5058840;28;20393;-49
2021/12/28 00:40:23;;;;;;;8.15;1.20;;;;;;;8.52;100.00;97980.34;5054636;28;20025;-49
2021/12/28 00:42:49;;;;;;;8.80;1.85;;;;;;;8.51;100.00;97989.28;5050715;28;20033;-49
2021/12/28 00:45:14;;;;;;;7.25;2.45;;;;;;;8.51;100.00;97992.72;5060817;28;20059;-49
2021/12/28 00:47:40;;;;;;;3.95;0.80;;;;;;;8.52;100.00;97990.91;5060083;28;20037;-47
2021/12/28 00:50:08;;;;;;;7.75;1.10;;;;;;;8.52;100.00;97985.63;5058603;28;20032;-47
2021/12/28 00:52:34;;;;;;;9.27;1.92;;;;;;;8.51;100.00;97984.81;5063772;28;20478;-47
2021/12/28 00:55:00;;;;;;;3.97;0.65;;;;;;;8.50;100.00;97987.72;5061284;28;20032;-52
2021/12/28 00:57:25;;;;;;;1.55;0.30;;;;;;;8.50;100.00;97991.13;5058972;28;20413;-49
2021/12/28 00:59:51;;;;;;;3.22;0.47;;;;;;;8.48;100.00;97987.94;5061642;28;20029;-51
2021/12/28 01:02:16;;;;;;;2.72;1.52;;;;;;;8.50;100.00;97985.84;5062355;28;20028;-46
2021/12/28 01:04:42;;;;;;;7.72;1.08;;;;;;;8.50;100.00;97991.13;5063213;28;20385;-52
2021/12/28 01:07:07;;;;;;;1.63;0.80;;;;;;;8.50;100.00;97995.63;5058796;28;20051;-48
2021/12/28 01:09:33;;;;;;;7.75;2.40;;;;;;;8.50;100.00;97987.72;5063459;28;20123;-49
2021/12/28 01:12:00;;;;;;;1.67;0.65;;;;;;;8.52;100.00;97990.91;5059061;28;20052;-48
2021/12/28 01:14:27;;;;;;;4.57;1.48;;;;;;;8.50;100.00;97985.84;5063462;28;20028;-47
2021/12/28 01:16:52;;;;;;;2.67;1.60;;;;;;;8.49;100.00;97968.41;5060661;28;20474;-51
2021/12/28 01:19:18;;;;;;;5.88;0.93;;;;;;;8.49;100.00;97971.06;5047833;28;20036;-46
2021/12/28 01:21:44;;;;;;;2.95;0.85;;;;;;;8.49;100.00;97976.34;5059297;28;20036;-46
2021/12/28 01:24:09;;;;;;;1.80;0.85;;;;;;;8.50;100.00;97979.78;5048029;28;20029;-47
2021/12/28 01:26:35;;;;;;;1.75;0.40;;;;;;;8.49;100.00;97973.69;5058989;28;20028;-52
2021/12/28 01:29:00;;;;;;;2.38;0.60;;;;;;;8.50;100.00;97972.66;5063535;28;20040;-48
2021/12/28 01:31:25;;;;;;;2.63;0.75;;;;;;;8.50;100.00;97975.28;5059385;28;20033;-50
2021/12/28 01:33:51;;;;;;;1.50;1.40;;;;;;;8.50;100.00;97975.28;5063300;28;20543;-47
2021/12/28 01:36:16;;;;;;;5.38;1.40;;;;;;;8.52;100.00;97985.63;5056261;28;20043;-47
2021/12/28 01:38:42;;;;;;;7.65;1.30;;;;;;;8.53;100.00;97987.22;5062455;28;20032;-51
2021/12/28 01:41:10;;;;;;;3.72;0.50;;;;;;;8.52;100.00;97991.72;5062056;28;20033;-48
2021/12/28 01:43:38;;;;;;;3.22;0.68;;;;;;;8.52;100.00;97981.16;5062215;28;20032;-52
2021/12/28 01:46:04;;;;;;;6.07;0.82;;;;;;;8.51;100.00;97984.81;5057888;28;20416;-50
2021/12/28 01:48:31;;;;;;;6.18;0.73;;;;;;;8.54;100.00;97998.59;5050076;28;20082;-48
2021/12/28 01:51:00;;;;;;;2.85;1.27;;;;;;;8.54;100.00;97998.59;5061489;28;20414;-49
2021/12/28 01:53:27;;;;;;;2.00;1.20;;;;;;;8.52;100.00;97991.72;5060138;28;20037;-47
2021/12/28 01:55:55;;;;;;;8.05;0.70;;;;;;;8.52;100.00;97991.72;5059733;28;20441;-50
2021/12/28 01:58:21;;;;;;;1.88;0.50;;;;;;;8.51;100.00;98005.94;5060406;28;20029;-47
2021/12/28 02:00:49;;;;;;;4.30;0.65;;;;;;;8.52;100.00;98012.84;5060886;28;20043;-49
2021/12/28 02:03:17;;;;;;;2.78;0.85;;;;;;;8.51;100.00;98005.94;5063073;28;20039;-51
2021/12/28 02:05:43;;;;;;;4.68;2.35;;;;;;;8.52;100.00;98010.19;5060813;28;20486;-49
2021/12/28 02:08:10;;;;;;;1.95;1.02;;;;;;;8.52;100.00;98002.28;5060796;28;20502;-48
2021/12/28 02:10:36;;;;;;;3.40;1.08;;;;;;;8.52;100.00;98004.91;5059221;28;20028;-49
2021/12/28 02:13:04;;;;;;;3.65;0.88;;;;;;;8.51;100.00;98003.28;5060078;28;20037;-48
2021/12/28 02:15:29;;;;;;;7.40;0.70;;;;;;;8.51;100.00;98002.50;5060323;28;20571;-48
2021/12/28 02:17:55;;;;;;;5.65;1.20;;;;;;;8.51;100.00;98005.94;5060642;28;20033;-47
2021/12/28 02:20:21;;;;;;;6.15;0.47;;;;;;;8.52;100.00;98002.28;5063282;28;20028;-50
2021/12/28 02:22:47;;;;;;;4.07;0.93;;;;;;;8.52;100.00;98012.84;5062752;28;20561;-47
2021/12/28 02:25:14;;;;;;;4.72;0.95;;;;;;;8.54;100.00;98009.94;5057969;28;20144;-48
2021/12/28 02:27:40;;;;;;;1.08;0.50;;;;;;;8.56;100.00;98015.00;5057821;28;20028;-51
2021/12/28 02:30:09;;;;;;;4.20;2.17;;;;;;;8.57;100.00;98014.78;5061684;28;20358;-50
2021/12/28 02:32:38;;;;;;;7.57;2.47;;;;;;;8.58;100.00;98016.38;5063774;28;20036;-49
2021/12/28 02:35:06;;;;;;;6.85;2.05;;;;;;;8.58;100.00;98016.38;5060301;28;20510;-49
2021/12/28 02:37:31;;;;;;;7.45;1.10;;;;;;;8.58;100.00;98016.38;5061587;28;20367;-49
2021/12/28 02:39:57;;;;;;;4.38;1.05;;;;;;;8.60;100.00;98024.06;5060680;28;20075;-48
2021/12/28 02:42:24;;;;;;;1.13;0.38;;;;;;;8.57;100.00;98020.06;5062332;28;20048;-49
2021/12/28 02:45:02;;;;;;;4.05;1.45;;;;;;;8.58;100.00;98012.94;5060024;28;20120;-51
2021/12/28 02:47:29;;;;;;;5.90;1.40;;;;;;;8.57;100.00;98004.22;5060911;28;20432;-48
2021/12/28 02:49:55;;;;;;;7.63;3.10;;;;;;;8.58;100.00;97999.72;5046223;28;20032;-53
2021/12/28 02:52:21;;;;;;;1.05;0.80;;;;;;;8.59;100.00;97993.38;5062370;28;20594;-48
2021/12/28 02:54:47;;;;;;;1.23;0.90;;;;;;;8.59;100.00;97980.19;5056894;28;20127;-50
2021/12/28 02:57:13;;;;;;;4.95;1.13;;;;;;;8.59;100.00;97967.78;5061223;28;20119;-50
2021/12/28 02:59:49;;;;;;;5.78;1.38;;;;;;;8.63;100.00;97965.47;5061535;28;20036;-50
2021/12/28 03:02:15;;;;;;;6.90;0.70;;;;;;;8.61;100.00;97959.63;5062843;28;20029;-46
2021/12/28 03:04:41;;;;;;;4.65;0.90;;;;;;;8.61;100.00;97954.34;5062205;28;20032;-51
2021/12/28 03:07:07;;;;;;;3.33;0.60;;;;;;;8.61;100.00;97965.69;5062227;28;20466;-46
2021/12/28 03:09:32;;;;;;;4.80;1.30;;;;;;;8.61;100.00;97960.41;5060495;28;20064;-48
2021/12/28 03:11:57;;;;;;;1.25;0.93;;;;;;;8.62;100.00;97964.66;5061481;28;20051;-49
2021/12/28 03:14:23;;;;;;;6.70;2.33;;;;;;;8.60;100.00;97952.75;5062356;28;20487;-49
2021/12/28 03:16:48;;;;;;;2.33;0.70;;;;;;;8.59;100.00;97953.78;5064676;28;20131;-49
2021/12/28 03:19:13;;;;;;;3.80;0.60;;;;;;;8.60;100.00;97953.53;5066550;28;20056;-47
2021/12/28 03:21:40;;;;;;;11.52;2.35;;;;;;;8.61;100.00;97956.97;5065546;28;20493;-50
2021/12/28 03:24:07;;;;;;;2.72;0.88;;;;;;;8.61;100.00;97962.25;5056317;28;20456;-47
2021/12/28 03:26:33;;;;;;;3.35;0.50;;;;;;;8.61;100.00;97975.47;5063798;28;20037;-49
2021/12/28 03:28:58;;;;;;;7.15;1.05;;;;;;;8.60;100.00;97981.81;5065274;28;20033;-47
2021/12/28 03:31:24;;;;;;;6.30;2.03;;;;;;;8.59;100.00;97978.34;5065185;28;20020;-49
2021/12/28 03:33:52;;;;;;;6.82;1.00;;;;;;;8.60;100.00;97977.31;5064485;28;20118;-48
2021/12/28 03:36:18;;;;;;;3.70;0.90;;;;;;;8.59;100.00;97978.34;5064283;28;20056;-49
2021/12/28 03:38:45;;;;;;;5.13;1.33;;;;;;;8.61;100.00;97991.31;5062491;28;20173;-50
2021/12/28 03:41:12;;;;;;;7.32;1.85;;;;;;;8.61;100.00;97989.47;5066129;28;20028;-46
2021/12/28 03:43:42;;;;;;;4.13;1.00;;;;;;;8.62;100.00;97985.81;5065839;28;20497;-46
2021/12/28 03:46:08;;;;;;;3.20;1.00;;;;;;;8.64;100.00;97990.84;5064516;28;20513;-49
2021/12/28 03:48:35;;;;;;;1.67;0.57;;;;;;;8.64;100.00;97988.97;5067165;28;20028;-48
2021/12/28 03:51:01;;;;;;;10.40;1.95;;;;;;;8.65;100.00;97987.97;5062144;28;20667;-46
2021/12/28 03:53:26;;;;;;;9.32;2.45;;;;;;;8.67;100.00;97987.72;5064406;28;20198;-50
2021/12/28 03:55:52;;;;;;;7.65;1.05;;;;;;;8.68;100.00;97984.84;5064356;28;20470;-49
2021/12/28 03:58:17;;;;;;;4.32;1.13;;;;;;;8.70;100.00;97989.91;5062867;28;20048;-49
2021/12/28 04:00:47;;;;;;;5.97;1.35;;;;;;;8.71;100.00;97989.63;5062471;28;20024;-49
2021/12/28 04:03:14;;;;;;;9.15;0.90;;;;;;;8.73;100.00;97998.13;5055326;28;20079;-49
2021/12/28 04:05:44;;;;;;;5.13;0.85;;;;;;;8.74;100.00;98006.84;5063522;28;20062;-46
2021/12/28 04:08:09;;;;;;;3.08;0.52;;;;;;;8.76;100.00;98001.34;5063420;28;20099;-48
2021/12/28 04:10:50;;;;;;;4.10;0.55;;;;;;;8.82;100.00;97987.97;5064484;28;20038;-50
2021/12/28 04:13:16;;;;;;;3.40;1.75;;;;;;;8.76;100.00;97983.63;5064900;28;20063;-49
2021/12/28 04:15:42;;;;;;;0.60;0.17;;;;;;;8.78;100.00;97993.94;5065602;28;20075;-49
2021/12/28 04:18:07;;;;;;;5.97;0.20;;;;;;;8.76;100.00;97986.28;5065565;28;20083;-51
2021/12/28 04:20:33;;;;;;;1.83;0.10;;;;;;;8.72;100.00;97988.63;5060412;28;20036;-47
2021/12/28 04:22:58;;;;;;;1.25;0.17;;;;;;;8.72;100.00;97993.06;5066674;28;20043;-48
2021/12/28 04:25:24;;;;;;;1.35;0.20;;;;;;;8.73;100.00;98002.63;5064237;28;20070;-46
2021/12/28 04:27:49;;;;;;;7.43;0.38;;;;;;;8.74;100.00;98004.22;5065286;28;20040;-49
2021/12/28 04:30:15;;;;;;;2.63;0.52;;;;;;;8.71;100.00;98002.06;5061699;28;20048;-46
2021/12/28 04:32:42;;;;;;;0.82;0.10;;;;;;;8.72;100.00;97995.72;5062998;28;20039;-49
2021/12/28 04:35:08;;;;;;;1.45;0.10;;;;;;;8.73;100.00;97989.41;5061506;28;20127;-48
2021/12/28 04:37:34;;;;;;;0.30;0.22;;;;;;;8.68;100.00;97989.31;5066715;28;20029;-50
2021/12/28 04:39:59;;;;;;;4.47;0.20;;;;;;;8.62;100.00;97990.25;5061558;28;20031;-49
2021/12/28 04:42:27;;;;;;;1.10;0.57;;;;;;;8.58;100.00;97989.94;5065968;28;20038;-53
2021/12/28 04:44:52;;;;;;;0.22;0.05;;;;;;;8.56;100.00;97983.31;5064510;28;20040;-52
2021/12/28 04:47:18;;;;;;;1.35;0.00;;;;;;;8.51;100.00;97990.09;5066329;28;20043;-48
2021/12/28 04:49:44;;;;;;;2.13;1.42;;;;;;;8.51;100.00;97989.28;5064377;28;20477;-46
2021/12/28 04:52:09;;;;;;;5.03;0.70;;;;;;;8.50;100.00;97988.50;5061839;28;20056;-48
2021/12/28 04:54:37;;;;;;;1.95;0.00;;;;;;;8.50;100.00;97987.72;5064478;28;20393;-50
2021/12/28 04:57:04;;;;;;;3.53;0.00;;;;;;;8.52;100.00;97991.72;5062813;28;20037;-46
2021/12/28 04:59:29;;;;;;;1.00;0.30;;;;;;;8.50;100.00;97995.63;5064886;28;20020;-49
2021/12/28 05:01:54;;;;;;;10.70;1.23;;;;;;;8.46;100.00;97990.00;5063265;28;20043;-50
2021/12/28 05:04:20;;;;;;;0.47;0.00;;;;;;;8.45;100.00;97984.97;5064670;28;20028;-46
2021/12/28 05:06:45;;;;;;;0.32;0.05;;;;;;;8.44;100.00;97989.47;5065497;28;20466;-48
2021/12/28 05:09:12;;;;;;;1.65;0.00;;;;;;;8.47;100.00;97988.97;5066663;28;20036;-50
2021/12/28 05:11:38;;;;;;;0.90;0.08;;;;;;;8.49;100.00;98000.13;5064067;28;20090;-48
2021/12/28 05:14:05;;;;;;;0.00;0.00;;;;;;;8.51;100.00;97994.56;5056434;28;20040;-52
2021/12/28 05:16:33;;;;;;;0.85;0.17;;;;;;;8.51;100.00;98003.28;5060162;28;20052;-45
2021/12/28 05:19:00;;;;;;;1.40;0.25;;;;;;;8.52;100.00;97994.34;5061338;28;20175;-47
2021/12/28 05:21:25;;;;;;;1.17;0.00;;;;;;;8.49;100.00;98005.41;5062277;28;20451;-49
2021/12/28 05:23:51;;;;;;;0.10;0.00;;;;;;;8.47;100.00;98007.47;5061747;28;20254;-52
2021/12/28 05:26:17;;;;;;;0.30;0.00;;;;;;;8.47;100.00;98011.94;5056943;28;20040;-51
2021/12/28 05:28:42;;;;;;;0.10;0.00;;;;;;;8.46;100.00;98005.84;5065677;28;20482;-51
2021/12/28 05:31:08;;;;;;;0.20;0.00;;;;;;;8.50;100.00;98009.63;5064277;28;20450;-48
2021/12/28 05:33:33;;;;;;;1.27;0.00;;;;;;;8.49;100.00;98002.75;5057962;28;20074;-52
2021/12/28 05:35:59;;;;;;;0.60;0.00;;;;;;;8.51;100.00;98002.50;5055975;28;20045;-49
2021/12/28 05:38:24;;;;;;;0.63;0.10;;;;;;;8.49;100.00;98007.22;5059050;28;20645;-47
2021/12/28 05:40:50;;;;;;;0.55;0.32;;;;;;;8.49;100.00;98008.03;5059454;28;20028;-49
2021/12/28 05:43:15;;;;;;;0.43;0.00;;;;;;;8.52;100.00;98006.75;5061784;28;20021;-52
2021/12/28 05:45:43;;;;;;;0.00;0.00;;;;;;;8.48;100.00;98003.78;5059380;28;20418;-48
2021/12/28 05:48:08;;;;;;;0.60;0.20;;;;;;;8.47;100.00;98010.09;5064746;28;20136;-48
2021/12/28 05:50:33;;;;;;;0.00;0.00;;;;;;;8.48;100.00;98005.63;5059471;28;20040;-49
2021/12/28 05:52:59;;;;;;;0.45;0.00;;;;;;;8.47;100.00;97996.09;5060133;28;20478;-49
2021/12/28 05:55:24;;;;;;;0.10;0.00;;;;;;;8.52;100.00;97996.19;5058417;28;20120;-50
2021/12/28 05:57:50;;;;;;;0.30;0.30;;;;;;;8.58;100.00;97989.16;5065260;28;20179;-54
2021/12/28 06:00:17;;;;;;;0.00;0.00;;;;;;;8.60;100.00;97993.16;5063191;28;20040;-46
2021/12/28 06:02:42;;;;;;;1.00;0.00;;;;;;;8.56;100.00;97991.22;5066472;28;20117;-49
2021/12/28 06:05:08;;;;;;;0.00;0.00;;;;;;;8.49;100.00;97979.00;5061077;28;20508;-52
2021/12/28 06:07:33;;;;;;;0.10;0.00;;;;;;;8.50;100.00;97977.94;5061047;28;20035;-50
2021/12/28 06:09:59;;;;;;;0.00;0.00;;;;;;;8.47;100.00;97981.06;5062484;28;20028;-49
2021/12/28 06:12:25;;;;;;;1.80;0.00;;;;;;;8.41;100.00;97978.56;5064308;28;20079;-47
2021/12/28 06:14:51;;;;;;;0.03;0.00;;;;;;;8.37;100.00;97987.97;5055151;28;20040;-51
2021/12/28 06:17:17;;;;;;;1.05;0.00;;;;;;;8.35;100.00;97984.75;5064302;28;20088;-51
2021/12/28 06:19:43;;;;;;;0.00;0.00;;;;;;;8.35;100.00;97977.63;5065286;28;20032;-51
2021/12/28 06:22:08;;;;;;;0.00;0.00;;;;;;;8.35;100.00;97972.38;5063607;28;20426;-49
2021/12/28 06:24:34;;;;;;;0.10;0.00;;;;;;;8.35;100.00;97979.47;5063581;28;20395;-49
2021/12/28 06:26:59;;;;;;;0.85;0.00;;;;;;;8.32;100.00;97975.47;5059145;28;20036;-51
2021/12/28 06:29:25;;;;;;;0.00;0.00;;;;;;;8.32;100.00;97977.31;5062782;28;20032;-49
2021/12/28 06:31:50;;;;;;;0.03;0.03;;;;;;;8.34;100.00;97976.06;5062931;28;20052;-50
2021/12/28 06:34:16;;;;;;;0.05;0.00;;;;;;;8.39;100.00;97975.31;5062330;28;20032;-49
2021/12/28 06:36:43;;;;;;;0.17;0.00;;;;;;;8.41;100.00;97973.28;5063508;28;20035;-52
2021/12/28 06:39:09;;;;;;;0.00;0.00;;;;;;;8.42;100.00;97973.06;5062033;28;20498;-49
2021/12/28 06:41:35;;;;;;;0.80;0.68;;;;;;;8.42;100.00;97973.06;5060689;28;20086;-50
2021/12/28 06:44:00;;;;;;;0.00;0.00;;;;;;;8.43;100.00;97966.72;5050823;28;20037;-51
2021/12/28 06:46:25;;;;;;;0.00;0.00;;;;;;;8.43;100.00;97960.63;5062281;28;20056;-48
2021/12/28 06:48:51;;;;;;;0.15;0.00;;;;;;;8.44;100.00;97964.88;5065286;28;20028;-47
2021/12/28 06:51:16;;;;;;;0.00;0.00;;;;;;;8.40;100.00;97961.91;5064209;28;20036;-48
2021/12/28 06:53:41;;;;;;;0.30;0.22;;;;;;;8.41;100.00;97952.16;5061465;28;20029;-49
2021/12/28 06:56:08;;;;;;;0.00;0.00;;;;;;;8.41;100.00;97957.44;5066416;28;20035;-49
2021/12/28 06:58:33;;;;;;;0.00;0.00;;;;;;;8.38;100.00;97961.31;5065982;28;20020;-50
2021/12/28 07:00:59;;;;;;;0.00;0.00;;;;;;;8.39;100.00;97962.97;5065161;28;20040;-50
2021/12/28 07:03:24;;;;;;;0.00;0.00;;;;;;;8.41;100.00;97965.34;5064352;28;20044;-47
2021/12/28 07:05:49;;;;;;;2.17;0.00;;;;;;;8.42;100.00;97972.25;5066708;28;20127;-46
2021/12/28 07:08:15;;;;;;;0.00;0.00;;;;;;;8.48;100.00;97974.72;5068017;28;20037;-48
2021/12/28 07:10:42;;;;;;;0.30;0.10;;;;;;;8.52;100.00;97990.91;5067701;28;20032;-52
2021/12/28 07:13:07;;;;;;;0.22;0.00;;;;;;;8.55;100.00;97997.56;5065951;28;20029;-50
2021/12/28 07:15:33;;;;;;;1.50;0.10;;;;;;;8.54;100.00;98009.16;5065034;28;20131;-55
2021/12/28 07:17:58;;;;;;;1.50;0.00;;;;;;;8.49;100.00;98001.94;5068632;28;20880;-53
2021/12/28 07:20:24;;;;;;;2.40;0.10;;;;;;;8.47;100.00;97994.25;5065013;28;20107;-50
2021/12/28 07:22:49;;;;;;;0.93;0.10;;;;;;;8.45;100.00;98003.47;5065468;28;20063;-51
2021/12/28 07:25:14;;;;;;;0.88;0.57;;;;;;;8.37;100.00;97988.78;5066377;28;20032;-48
2021/12/28 07:27:40;;;;;;;5.00;0.50;;;;;;;8.27;100.00;98004.44;5065392;28;20701;-56
2021/12/28 07:30:09;;;;;;;12.07;1.33;;;;;;;8.33;100.00;97966.50;5065095;28;20035;-53
2021/12/28 07:32:35;;;;;;;6.93;1.30;;;;;;;8.22;100.00;97959.47;5064574;28;20147;-50
2021/12/28 07:35:02;;;;;;;10.98;0.80;;;;;;;8.11;100.00;97953.19;5065891;28;20053;-57
2021/12/28 07:37:27;;;;;;;15.65;2.85;;;;;;;7.99;100.00;97982.25;5062733;28;20086;-53
2021/12/28 07:39:53;;;;;;;14.20;1.92;;;;;;;7.88;100.00;97972.56;5060177;28;20029;-49
2021/12/28 07:42:19;;;;;;;7.50;1.00;;;;;;;7.74;100.00;97960.66;5063226;28;20036;-52
2021/12/28 07:44:44;;;;;;;8.20;1.52;;;;;;;7.61;100.00;97980.19;5067646;28;20489;-48
2021/12/28 07:47:10;;;;;;;8.30;1.10;;;;;;;7.61;100.00;97980.97;5067034;28;20061;-52
2021/12/28 07:49:36;;;;;;;8.85;1.13;;;;;;;7.57;100.00;97973.78;5061362;28;20028;-52
2021/12/28 07:52:01;;;;;;;10.23;2.78;;;;;;;7.49;100.00;97980.22;5056973;28;20064;-47
2021/12/28 07:54:27;;;;;;;12.80;2.00;;;;;;;7.39;100.00;97977.38;5053704;28;20082;-47
2021/12/28 07:56:52;;;;;;;3.92;2.22;;;;;;;7.32;100.00;97990.66;5067007;28;20024;-51
2021/12/28 07:59:17;;;;;;;18.95;3.60;;;;;;;7.38;100.00;97983.66;5063504;28;20076;-50
2021/12/28 08:01:43;;;;;;;18.83;1.88;;;;;;;7.54;100.00;97990.09;5058651;28;20501;-47
2021/12/28 08:04:08;;;;;;;22.23;2.10;;;;;;;7.55;100.00;97984.56;5065608;28;20066;-49
2021/12/28 08:06:34;;;;;;;11.25;0.75;;;;;;;7.55;100.00;97999.59;5047625;28;20645;-49
2021/12/28 08:08:59;;;;;;;14.55;2.25;;;;;;;7.55;100.00;98002.22;5048771;28;20116;-48
2021/12/28 08:11:25;;;;;;;15.02;3.22;;;;;;;7.54;100.00;98000.63;5067323;28;20119;-49
2021/12/28 08:13:51;;;;;;;10.05;3.40;;;;;;;7.54;100.00;98005.91;5049406;28;20033;-52
2021/12/28 08:16:16;;;;;;;7.47;1.50;;;;;;;7.52;100.00;98005.31;5063481;28;20078;-51
2021/12/28 08:18:42;;;;;;;10.25;1.48;;;;;;;7.37;100.00;98003.94;5064533;28;20496;-51
2021/12/28 08:21:07;;;;;;;6.95;3.42;;;;;;;7.29;100.00;97992.97;5063136;28;20109;-52
2021/12/28 08:23:32;;;;;;;13.25;1.35;;;;;;;7.19;100.00;97994.34;5082185;28;20449;-49
2021/12/28 08:25:58;;;;;;;4.22;1.27;;;;;;;7.09;100.00;98004.66;5064134;28;20201;-48
2021/12/28 08:28:23;;;;;;;5.93;2.05;;;;;;;7.17;100.00;98006.94;5065577;28;20436;-49
2021/12/28 08:30:49;;;;;;;7.97;1.83;;;;;;;7.14;100.00;98007.41;5063135;28;20536;-48
2021/12/28 08:33:15;;;;;;;12.45;1.63;;;;;;;7.26;100.00;98010.03;5063594;28;20499;-50
2021/12/28 08:35:40;;;;;;;11.88;1.75;;;;;;;7.28;100.00;98001.88;5063263;28;20545;-51
2021/12/28 08:38:07;;;;;;;7.65;1.45;;;;;;;7.28;100.00;98015.06;5065652;28;20532;-51
2021/12/28 08:40:33;;;;;;;12.27;2.38;;;;;;;7.18;100.00;98018.31;5061654;28;20040;-47
2021/12/28 08:42:58;;;;;;;4.25;1.55;;;;;;;7.21;100.00;98013.38;5060231;28;20455;-51
2021/12/28 08:45:24;;;;;;;11.73;3.13;;;;;;;7.16;100.00;98028.25;5064845;28;20439;-48
2021/12/28 08:47:50;;;;;;;6.80;1.40;;;;;;;7.15;100.00;98022.19;5061019;28;20120;-48
2021/12/28 08:50:18;;;;;;;4.93;2.05;;;;;;;7.12;100.00;98020.00;5061439;28;20041;-50
2021/12/28 08:52:44;;;;;;;11.40;1.80;;;;;;;7.10;100.00;98021.25;5060425;28;20362;-55
2021/12/28 08:55:09;;;;;;;11.45;1.48;;;;;;;7.13;100.00;98018.19;5063553;28;20043;-46
2021/12/28 08:57:36;;;;;;;10.68;1.70;;;;;;;7.13;100.00;98026.88;5060335;28;20482;-50
2021/12/28 09:00:05;;;;;;;13.80;2.30;;;;;;;7.27;100.00;98037.19;5062526;28;20036;-49
2021/12/28 09:02:30;;;;;;;7.60;1.70;;;;;;;7.31;100.00;98035.72;5057542;28;20562;-50
2021/12/28 09:04:56;;;;;;;8.60;1.92;;;;;;;7.29;100.00;98049.13;5064497;28;20025;-45
2021/12/28 09:07:21;;;;;;;18.88;2.20;;;;;;;7.27;100.00;98037.19;5060977;28;20032;-49
2021/12/28 09:09:47;;;;;;;10.55;1.65;;;;;;;7.24;100.00;98056.91;5053638;28;20161;-53
2021/12/28 09:12:12;;;;;;;8.45;2.47;;;;;;;7.20;100.00;98050.47;5057642;28;20531;-52
2021/12/28 09:14:39;;;;;;;18.92;2.13;;;;;;;7.19;100.00;98062.84;5062716;28;20033;-50
2021/12/28 09:17:06;;;;;;;10.65;1.42;;;;;;;7.20;100.00;98046.03;5060781;28;20025;-48
2021/12/28 09:19:32;;;;;;;14.60;2.15;;;;;;;7.28;100.00;98050.16;5059832;28;20109;-48
2021/12/28 09:21:58;;;;;;;9.02;1.45;;;;;;;7.31;100.00;98043.63;5059266;28;20466;-48
2021/12/28 09:24:24;;;;;;;10.63;1.98;;;;;;;7.45;100.00;98023.91;5061446;28;20032;-46
2021/12/28 09:26:50;;;;;;;4.90;1.25;;;;;;;7.46;100.00;98040.50;5061325;28;20034;-52
2021/12/28 09:29:15;;;;;;;12.63;2.65;;;;;;;7.47;100.00;98045.56;5059342;28;20043;-49
2021/12/28 09:31:41;;;;;;;16.10;2.67;;;;;;;7.48;100.00;98057.69;5060165;28;20078;-51
2021/12/28 09:34:07;;;;;;;19.33;1.58;;;;;;;7.58;100.00;98065.84;5060071;28;20032;-54
2021/12/28 09:36:33;;;;;;;7.45;1.60;;;;;;;7.67;100.00;98054.94;5058526;28;20033;-50
2021/12/28 09:38:58;;;;;;;7.70;1.42;;;;;;;7.63;100.00;98065.16;5054380;28;20040;-54
2021/12/28 09:41:23;;;;;;;5.30;1.00;;;;;;;7.60;100.00;98055.88;5062225;28;20032;-52
2021/12/28 09:43:49;;;;;;;7.70;2.55;;;;;;;7.53;100.00;98060.44;5061722;28;20029;-52
2021/12/28 09:46:15;;;;;;;8.30;0.90;;;;;;;7.55;100.00;98055.75;5064479;28;20043;-52
2021/12/28 09:48:40;;;;;;;7.70;1.95;;;;;;;7.63;100.00;98051.97;5065741;28;20024;-54
2021/12/28 09:51:07;;;;;;;6.78;1.95;;;;;;;7.67;100.00;98068.13;5055586;28;20028;-48
2021/12/28 09:53:32;;;;;;;5.18;0.75;;;;;;;7.63;100.00;98059.88;5061431;28;20549;-51
2021/12/28 09:55:58;;;;;;;6.57;1.85;;;;;;;7.59;100.00;98070.09;5061148;28;20120;-52
2021/12/28 09:58:24;;;;;;;12.80;1.75;;;;;;;7.53;100.00;98070.22;5059013;28;20033;-51
2021/12/28 10:00:49;;;;;;;4.68;1.27;;;;;;;7.50;100.00;98063.56;5059417;28;20021;-50
2021/12/28 10:03:15;;;;;;;5.07;1.92;;;;;;;7.58;100.00;98079.03;5060488;28;20498;-52
2021/12/28 10:05:41;;;;;;;6.13;0.65;;;;;;;7.64;100.00;98083.41;5058211;28;20055;-49
2021/12/28 10:08:07;;;;;;;4.22;0.40;;;;;;;7.63;100.00;98079.13;5052997;28;20573;-48
2021/12/28 10:10:41;;;;;;;5.20;0.63;;;;;;;7.60;100.00;98090.16;5051799;28;20029;-48
2021/12/28 10:13:17;;;;;;;3.72;0.85;;;;;;;7.58;100.00;98100.13;5054410;28;20028;-46
2021/12/28 10:15:44;;;;;;;5.82;0.75;;;;;;;7.61;100.00;98102.28;5058477;28;20397;-49
2021/12/28 10:18:12;;;;;;;7.40;0.52;;;;;;;7.62;100.00;98089.94;5059839;28;20477;-52
2021/12/28 10:20:47;;;;;;;5.75;0.73;;;;;;;7.57;100.00;98095.91;5059541;28;20024;-46
2021/12/28 10:23:16;;;;;;;15.02;1.02;;;;;;;7.56;100.00;98109.28;5055000;28;20472;-45
2021/12/28 10:25:45;;;;;;;3.80;0.90;;;;;;;7.57;100.00;98114.34;5055598;28;20073;-51
2021/12/28 10:28:14;;;;;;;9.18;0.85;;;;;;;7.70;100.00;98094.84;5054028;28;20598;-47
2021/12/28 10:30:43;;;;;;;3.88;0.50;;;;;;;7.77;100.00;98107.91;5049898;28;20036;-50
2021/12/28 10:33:12;;;;;;;4.78;0.30;;;;;;;7.86;100.00;98114.47;5051230;28;20481;-47
2021/12/28 10:35:47;;;;;;;11.65;3.30;;;;;;;7.91;100.00;98129.59;5054178;28;20032;-51
2021/12/28 10:38:17;;;;;;;6.72;0.75;;;;;;;7.99;100.00;98116.84;5055100;28;20028;-48
2021/12/28 10:40:49;;;;;;;6.40;1.33;;;;;;;8.01;100.00;98132.47;5053647;28;20068;-51
2021/12/28 10:43:20;;;;;;;4.53;0.85;;;;;;;8.01;100.00;98117.41;5051851;28;20094;-46
2021/12/28 10:45:50;;;;;;;5.05;0.77;;;;;;;8.09;100.00;98135.53;5053058;28;20029;-49
2021/12/28 10:48:22;;;;;;;8.87;1.27;;;;;;;8.03;100.00;98141.75;5056630;28;20029;-51
2021/12/28 10:50:54;;;;;;;3.83;1.63;;;;;;;7.99;100.00;98127.41;5056595;28;20281;-47
2021/12/28 10:53:33;;;;;;;12.38;2.20;;;;;;;7.94;100.00;98148.41;5049056;28;20063;-53
2021/12/28 10:56:00;;;;;;;6.57;0.77;;;;;;;7.94;100.00;98135.22;5058885;28;20059;-51
2021/12/28 10:58:35;;;;;;;11.27;1.55;;;;;;;7.96;100.00;98127.88;5060497;28;20041;-50
2021/12/28 11:01:17;;;;;;;4.38;0.55;;;;;;;8.01;100.00;98132.47;5054682;28;20044;-52
2021/12/28 11:03:48;;;;;;;9.57;2.13;;;;;;;8.01;100.00;98145.66;5082293;28;20040;-51
2021/12/28 11:06:33;;;;;;;;;;;;;;;8.09;100.00;98148.72;5050081;28;20048;-48
2021/12/28 11:09:10;;;;;;;6.53;1.73;;;;;;;8.12;100.00;98147.47;5048525;28;19920;-46
2021/12/28 11:11:36;;;;;;;4.05;1.48;;;;;;;8.15;100.00;98148.84;5050697;28;20037;-52
2021/12/28 11:14:05;;;;;;;5.22;1.17;;;;;;;8.22;100.00;98160.09;5050329;28;20032;-50
2021/12/28 11:16:32;;;;;;;8.68;1.65;;;;;;;8.20;100.00;98157.66;5049109;28;20424;-49
2021/12/28 11:19:01;;;;;;;5.88;1.45;;;;;;;8.28;100.00;98162.59;5050212;28;20033;-51
2021/12/28 11:21:34;;;;;;;7.47;0.77;;;;;;;8.29;100.00;98166.84;5049851;28;20490;-50
2021/12/28 11:24:13;;;;;;;14.60;2.35;;;;;;;8.33;100.00;98169.00;5054792;28;20160;-48
2021/12/28 11:26:47;;;;;;;7.22;1.13;;;;;;;8.41;100.00;98185.31;5051349;28;20044;-51
2021/12/28 11:29:16;;;;;;;8.68;1.90;;;;;;;8.45;100.00;98175.13;5050855;28;20048;-51
2021/12/28 11:31:51;;;;;;;5.32;1.73;;;;;;;8.40;100.00;98191.66;5053100;28;20028;-48